Time;durP1;ratioP1;P1;durP2;ratioP2;P2;SDS_P1;SDS_P2;PMS_P1;PMS_P2;Temp;Humidity;BMP_temperature;BMP_pressure;BME280_temperature;BME280_humidity;BME280_pressure;Samples;Min_cycle;Max_cycle;Signal;HPM_P1;HPM_P2
2023/10/22 00:03:28;;;;;;;0.10;0.10;;;;;;;18.87;60.76;95767.72;10339209;28;20841;-27
2023/10/22 00:08:29;;;;;;;0.60;0.40;;;;;;;18.84;60.81;95761.84;10352013;28;20426;-28
2023/10/22 00:13:30;;;;;;;0.30;0.20;;;;;;;18.88;60.79;95773.59;10354422;28;20045;-28
2023/10/22 00:18:31;;;;;;;0.30;0.20;;;;;;;18.87;60.70;95779.53;10356917;28;20034;-28
2023/10/22 00:23:31;;;;;;;0.10;0.10;;;;;;;18.88;60.77;95764.31;10354586;28;20034;-28
2023/10/22 00:28:31;;;;;;;0.63;0.20;;;;;;;18.87;60.74;95766.88;10353670;28;20026;-28
2023/10/22 00:33:32;;;;;;;0.10;0.10;;;;;;;18.87;60.70;95779.53;10350893;28;20037;-28
2023/10/22 00:38:32;;;;;;;0.30;0.27;;;;;;;18.88;60.74;95781.22;10356400;28;20042;-29
2023/10/22 00:43:33;;;;;;;0.30;0.20;;;;;;;18.87;60.81;95782.06;10339044;28;20034;-28
2023/10/22 00:48:33;;;;;;;0.20;0.20;;;;;;;18.87;60.61;95798.16;10338325;28;20300;-28
2023/10/22 00:53:36;;;;;;;0.20;0.10;;;;;;;18.87;60.53;95798.16;10347246;28;20036;-28
2023/10/22 00:58:37;;;;;;;0.55;0.30;;;;;;;18.85;60.61;95791.41;10338224;28;20038;-29
2023/10/22 01:03:38;;;;;;;0.22;0.10;;;;;;;18.86;60.85;95808.31;10348034;28;20482;-28
2023/10/22 01:08:39;;;;;;;0.20;0.10;;;;;;;18.87;60.59;95807.44;10345033;28;20585;-28
2023/10/22 01:13:40;;;;;;;0.20;0.20;;;;;;;18.87;60.71;95809.97;10354880;28;20030;-28
2023/10/22 01:18:40;;;;;;;0.28;0.20;;;;;;;18.85;60.52;95810.00;10353420;28;20053;-28
2023/10/22 01:23:41;;;;;;;0.13;0.13;;;;;;;18.86;60.60;95813.38;10358841;28;20034;-28
2023/10/22 01:28:41;;;;;;;0.20;0.10;;;;;;;18.86;60.61;95820.97;10359132;28;20489;-27
2023/10/22 01:33:42;;;;;;;0.20;0.10;;;;;;;18.86;60.63;95820.97;10348316;28;20038;-28
2023/10/22 01:38:42;;;;;;;0.20;0.10;;;;;;;18.86;60.62;95818.44;10361540;28;20477;-28
2023/10/22 01:43:43;;;;;;;0.23;0.20;;;;;;;18.86;60.70;95810.84;10357284;28;20378;-28
2023/10/22 01:48:43;;;;;;;0.27;0.17;;;;;;;18.85;60.72;95820.13;10365023;28;20022;-29
2023/10/22 01:53:43;;;;;;;0.17;0.17;;;;;;;18.84;60.47;95820.19;10359551;28;20113;-28
2023/10/22 01:58:44;;;;;;;0.25;0.20;;;;;;;18.85;60.52;95829.47;10359517;28;20037;-28
2023/10/22 02:03:45;;;;;;;0.40;0.20;;;;;;;18.85;60.76;95839.59;10353867;28;20033;-28
2023/10/22 02:08:46;;;;;;;0.30;0.20;;;;;;;18.84;60.52;95843.81;10360193;28;20033;-27
2023/10/22 02:13:46;;;;;;;0.20;0.20;;;;;;;18.85;60.46;95849.75;10359580;28;20044;-28
2023/10/22 02:18:46;;;;;;;0.13;0.00;;;;;;;18.85;60.55;95859.88;10353045;28;20503;-28
2023/10/22 02:23:47;;;;;;;0.33;0.23;;;;;;;18.84;60.54;95868.38;10361694;28;20087;-28
2023/10/22 02:28:47;;;;;;;0.50;0.10;;;;;;;18.85;60.60;95875.09;10356827;28;20026;-28
2023/10/22 02:33:47;;;;;;;0.17;0.07;;;;;;;18.85;60.48;95875.09;10358822;28;20029;-28
2023/10/22 02:38:48;;;;;;;0.37;0.10;;;;;;;18.85;60.55;95864.97;10352073;28;20153;-27
2023/10/22 02:43:48;;;;;;;0.20;0.20;;;;;;;18.83;60.36;95862.44;10351029;28;20077;-28
2023/10/22 02:48:48;;;;;;;0.53;0.20;;;;;;;18.83;60.41;95871.75;10364334;28;20033;-29
2023/10/22 02:53:49;;;;;;;0.20;0.10;;;;;;;18.83;60.55;95872.56;10362421;28;20034;-28
2023/10/22 02:58:50;;;;;;;0.20;0.20;;;;;;;18.84;60.51;95875.97;10359245;28;20033;-28
2023/10/22 03:03:50;;;;;;;0.27;0.20;;;;;;;18.84;60.27;95878.50;10355930;28;20044;-29
2023/10/22 03:08:50;;;;;;;0.23;0.13;;;;;;;18.83;60.59;95881.91;10350596;28;20029;-27
2023/10/22 03:13:51;;;;;;;0.47;0.23;;;;;;;18.82;60.41;95887.84;10351763;28;20029;-28
2023/10/22 03:18:52;;;;;;;0.10;0.10;;;;;;;18.83;60.69;95892.03;10348831;28;20026;-28
2023/10/22 03:23:52;;;;;;;0.10;0.10;;;;;;;18.83;60.36;95897.13;10353866;28;20030;-28
2023/10/22 03:28:53;;;;;;;0.15;0.10;;;;;;;18.83;60.46;95899.66;10350508;28;20068;-28
2023/10/22 03:33:53;;;;;;;0.30;0.10;;;;;;;18.84;60.41;95904.69;10356395;28;20112;-27
2023/10/22 03:38:53;;;;;;;0.10;0.10;;;;;;;18.83;60.39;95905.53;10355257;28;20038;-28
2023/10/22 03:43:54;;;;;;;0.20;0.20;;;;;;;18.82;60.27;95905.59;10346822;28;20036;-28
2023/10/22 03:48:56;;;;;;;0.00;0.00;;;;;;;18.82;60.33;95910.66;10348485;28;20297;-27
2023/10/22 03:53:57;;;;;;;0.13;0.10;;;;;;;18.83;60.39;95907.25;10352846;28;20025;-28
2023/10/22 03:58:59;;;;;;;0.30;0.10;;;;;;;18.82;60.14;95920.81;10362206;28;20030;-29
2023/10/22 04:03:59;;;;;;;0.17;0.10;;;;;;;18.82;60.33;95925.88;10353439;28;20389;-27
2023/10/22 04:09:00;;;;;;;0.40;0.10;;;;;;;18.82;60.47;95921.63;10349394;28;20029;-27
2023/10/22 04:14:00;;;;;;;0.10;0.10;;;;;;;18.81;60.20;95934.31;10341970;28;20044;-28
2023/10/22 04:19:01;;;;;;;0.10;0.10;;;;;;;18.81;60.20;95936.84;10326324;28;20030;-28
2023/10/22 04:24:02;;;;;;;0.10;0.10;;;;;;;18.81;60.41;95944.47;10336391;28;20160;-28
2023/10/22 04:29:02;;;;;;;0.13;0.10;;;;;;;18.81;60.21;95944.47;10328569;28;20023;-28
2023/10/22 04:34:03;;;;;;;0.17;0.17;;;;;;;18.82;60.26;95966.44;10336254;28;20034;-28
2023/10/22 04:39:03;;;;;;;0.17;0.10;;;;;;;18.81;60.43;95959.69;10343768;28;20473;-28
2023/10/22 04:44:04;;;;;;;0.10;0.10;;;;;;;18.81;60.17;95974.91;10334736;28;20289;-28
2023/10/22 04:49:05;;;;;;;0.10;0.10;;;;;;;18.80;60.08;95983.38;10338941;28;20372;-29
2023/10/22 04:54:05;;;;;;;0.10;0.10;;;;;;;18.81;60.26;95978.28;10337911;28;20100;-29
2023/10/22 04:59:06;;;;;;;0.20;0.20;;;;;;;18.79;60.28;95982.53;10353726;28;20451;-28
2023/10/22 05:04:06;;;;;;;0.10;0.00;;;;;;;18.80;60.34;95985.91;10339556;28;20030;-28
2023/10/22 05:09:06;;;;;;;0.20;0.20;;;;;;;18.79;60.16;95995.22;10334211;28;20109;-28
2023/10/22 05:14:07;;;;;;;0.20;0.20;;;;;;;18.80;60.31;95994.34;10342108;28;20030;-28
2023/10/22 05:19:08;;;;;;;0.30;0.17;;;;;;;18.80;60.20;95993.50;10353250;28;20031;-28
2023/10/22 05:24:11;;;;;;;0.20;0.15;;;;;;;18.80;60.36;95998.56;10340991;28;20842;-28
2023/10/22 05:29:12;;;;;;;0.17;0.17;;;;;;;18.80;60.07;95993.50;10349727;28;20027;-28
2023/10/22 05:34:12;;;;;;;0.10;0.10;;;;;;;18.78;60.15;95995.22;10332710;28;20038;-28
2023/10/22 05:39:12;;;;;;;0.17;0.10;;;;;;;18.78;60.34;95997.75;10333977;28;20304;-27
2023/10/22 05:44:13;;;;;;;0.30;0.20;;;;;;;18.77;60.17;95996.91;10347824;28;20034;-27
2023/10/22 05:49:15;;;;;;;0.40;0.20;;;;;;;18.73;60.28;95991.91;10345848;28;20384;-28
2023/10/22 05:54:15;;;;;;;0.10;0.10;;;;;;;18.73;60.22;96009.66;10344728;28;20033;-28
2023/10/22 05:59:16;;;;;;;0.63;0.20;;;;;;;18.69;60.02;96010.56;10341141;28;20034;-28
2023/10/22 06:04:16;;;;;;;0.20;0.10;;;;;;;18.78;60.15;96030.72;10339842;28;20567;-28
2023/10/22 06:09:18;;;;;;;0.10;0.10;;;;;;;18.77;60.17;96023.97;10347128;28;20041;-29
2023/10/22 06:14:18;;;;;;;0.10;0.10;;;;;;;18.76;60.15;96038.34;10347291;28;20038;-28
2023/10/22 06:19:19;;;;;;;0.30;0.20;;;;;;;18.72;60.27;96046.00;10347839;28;20049;-27
2023/10/22 06:24:21;;;;;;;0.10;0.10;;;;;;;18.76;60.10;96045.13;10351182;28;20034;-27
2023/10/22 06:29:21;;;;;;;0.10;0.10;;;;;;;18.68;60.14;96034.25;10349489;28;20378;-28
2023/10/22 06:34:22;;;;;;;0.10;0.10;;;;;;;18.76;60.23;96061.16;10338631;28;20041;-28
2023/10/22 06:39:22;;;;;;;0.20;0.20;;;;;;;18.74;60.14;96059.53;10344315;28;20042;-27
2023/10/22 06:44:22;;;;;;;0.10;0.10;;;;;;;18.75;60.09;96062.03;10357801;28;20413;-28
2023/10/22 06:49:23;;;;;;;0.20;0.20;;;;;;;18.72;60.03;96064.63;10349989;28;20420;-28
2023/10/22 06:54:23;;;;;;;0.53;0.20;;;;;;;18.70;60.06;96068.00;10335576;28;20503;-28
2023/10/22 06:59:24;;;;;;;0.20;0.10;;;;;;;18.73;59.78;96088.25;10347099;28;20042;-28
2023/10/22 07:04:24;;;;;;;0.20;0.20;;;;;;;18.74;60.17;96087.44;10334200;28;20297;-27
2023/10/22 07:09:24;;;;;;;0.00;0.00;;;;;;;18.73;60.17;96094.19;10350909;28;20096;-28
2023/10/22 07:14:26;;;;;;;0.10;0.10;;;;;;;18.74;60.16;96095.03;10338651;28;20038;-29
2023/10/22 07:19:26;;;;;;;0.40;0.10;;;;;;;18.74;60.28;96095.03;10340577;28;20044;-28
2023/10/22 07:24:26;;;;;;;0.23;0.17;;;;;;;18.75;59.95;96106.84;10329969;28;20049;-28
2023/10/22 07:29:27;;;;;;;0.10;0.10;;;;;;;18.72;59.99;96109.41;10339088;28;20053;-29
2023/10/22 07:34:28;;;;;;;0.30;0.20;;;;;;;18.67;59.88;96098.47;10331360;28;20030;-28
2023/10/22 07:39:28;;;;;;;0.10;0.10;;;;;;;18.75;60.03;96124.59;10328422;28;20652;-28
2023/10/22 07:44:28;;;;;;;0.20;0.20;;;;;;;18.74;59.96;96117.84;10344019;28;20113;-28
2023/10/22 07:49:29;;;;;;;0.50;0.23;;;;;;;18.75;59.97;96132.22;10340615;28;20540;-28
2023/10/22 07:54:29;;;;;;;0.10;0.10;;;;;;;18.73;60.04;96123.75;10332671;28;20488;-29
2023/10/22 07:59:29;;;;;;;0.27;0.10;;;;;;;18.74;60.74;96130.53;10339215;28;20041;-28
2023/10/22 08:04:30;;;;;;;0.10;0.10;;;;;;;18.74;59.82;96138.13;10339851;28;20301;-28
2023/10/22 08:09:30;;;;;;;0.10;0.10;;;;;;;18.73;59.82;96141.50;10336038;28;20592;-28
2023/10/22 08:14:30;;;;;;;1.13;0.20;;;;;;;18.74;59.73;96138.13;10343202;28;20040;-28
2023/10/22 08:19:31;;;;;;;0.47;0.20;;;;;;;18.75;60.03;96152.50;10331712;28;20308;-27
2023/10/22 08:24:31;;;;;;;0.20;0.13;;;;;;;18.73;60.02;96144.91;10338975;28;20034;-30
2023/10/22 08:29:32;;;;;;;0.20;0.20;;;;;;;18.75;59.94;96149.97;10341876;28;20038;-28
2023/10/22 08:34:32;;;;;;;0.10;0.10;;;;;;;18.72;60.10;96144.91;10339964;28;20301;-27
2023/10/22 08:39:33;;;;;;;0.65;0.10;;;;;;;18.76;59.93;96144.03;10337401;28;20034;-27
2023/10/22 08:44:37;;;;;;;0.10;0.05;;;;;;;18.76;60.03;96154.16;10347596;28;20038;-28
2023/10/22 08:49:39;;;;;;;0.38;0.38;;;;;;;18.74;60.04;96156.72;10327920;28;20042;-29
2023/10/22 08:54:39;;;;;;;0.63;0.10;;;;;;;18.74;60.03;96160.97;10340894;28;20042;-28
2023/10/22 08:59:40;;;;;;;0.20;0.10;;;;;;;18.75;59.91;96162.63;10349079;28;20034;-28
2023/10/22 09:04:40;;;;;;;0.20;0.20;;;;;;;18.75;59.92;96165.19;10347025;28;20038;-27
2023/10/22 09:09:41;;;;;;;0.27;0.17;;;;;;;18.73;59.73;96159.25;10340015;28;20042;-28
2023/10/22 09:14:43;;;;;;;0.10;0.10;;;;;;;18.75;59.72;96170.25;10337371;28;20296;-28
2023/10/22 09:19:51;;;;;;;0.20;0.20;;;;;;;18.77;59.89;96181.22;10329175;28;20503;-28
2023/10/22 09:24:57;;;;;;;0.10;0.10;;;;;;;18.76;59.95;96169.38;10341514;28;20041;-27
2023/10/22 09:30:00;;;;;;;0.10;0.00;;;;;;;18.74;59.97;96174.47;10343545;28;20069;-29
2023/10/22 09:35:13;;;;;;;0.13;0.10;;;;;;;18.75;59.88;96167.72;10343605;28;20129;-28
2023/10/22 09:40:21;;;;;;;0.32;0.28;;;;;;;18.76;59.53;96175.28;10355514;28;20563;-28
2023/10/22 09:45:23;;;;;;;0.40;0.40;;;;;;;18.76;59.84;96179.53;10351037;28;20481;-28
2023/10/22 09:50:26;;;;;;;0.55;0.20;;;;;;;18.75;59.74;96182.94;10345224;28;20539;-29
2023/10/22 09:55:28;;;;;;;0.52;0.10;;;;;;;18.74;59.96;96181.25;10345297;28;20487;-28
2023/10/22 10:00:29;;;;;;;0.10;0.10;;;;;;;18.75;59.91;96182.94;10359809;28;20412;-28
2023/10/22 10:05:32;;;;;;;0.30;0.17;;;;;;;18.76;59.92;96185.41;10338070;28;20034;-28
2023/10/22 10:10:32;;;;;;;0.15;0.13;;;;;;;18.75;59.80;96180.38;10335707;28;20436;-28
2023/10/22 10:15:35;;;;;;;0.17;0.10;;;;;;;18.76;59.84;96187.97;10356394;28;20042;-28
2023/10/22 10:20:40;;;;;;;0.22;0.15;;;;;;;18.73;59.81;96185.47;10341545;28;20124;-27
2023/10/22 10:25:42;;;;;;;1.50;0.13;;;;;;;18.74;59.86;96189.69;10354285;28;20033;-29
2023/10/22 10:30:42;;;;;;;0.28;0.25;;;;;;;18.74;59.81;96186.31;10359378;28;20069;-31
2023/10/22 10:35:48;;;;;;;0.63;0.53;;;;;;;18.75;58.88;96185.47;10348332;28;20114;-28
2023/10/22 10:40:53;;;;;;;1.83;0.50;;;;;;;18.73;59.66;96184.59;10349109;28;20037;-28
2023/10/22 10:46:26;;;;;;;0.45;0.30;;;;;;;18.73;59.87;96179.53;10352892;28;20041;-28
2023/10/22 10:51:27;;;;;;;1.75;0.22;;;;;;;18.75;58.61;96177.84;10346640;28;20069;-28
2023/10/22 10:56:47;;;;;;;2.85;0.30;;;;;;;18.77;59.40;96178.66;10354087;28;20117;-27
2023/10/22 11:01:59;;;;;;;5.25;0.40;;;;;;;18.76;58.40;96179.53;10343271;28;20042;-28
2023/10/22 11:07:00;;;;;;;1.55;0.30;;;;;;;18.77;58.91;96179.50;10347494;28;20038;-28
2023/10/22 11:12:03;;;;;;;5.60;0.82;;;;;;;18.75;60.53;96177.84;10344649;28;20515;-28
2023/10/22 11:17:05;;;;;;;2.60;0.50;;;;;;;18.74;60.56;96186.31;10348574;28;20042;-29
2023/10/22 11:22:09;;;;;;;4.30;0.70;;;;;;;18.71;58.17;96181.25;10344206;28;20029;-27
2023/10/22 11:27:10;;;;;;;9.40;0.85;;;;;;;18.69;58.43;96188.91;10350086;28;20034;-28
2023/10/22 11:32:15;;;;;;;1.55;0.50;;;;;;;18.72;58.87;96180.41;10355348;28;20038;-29
2023/10/22 11:37:21;;;;;;;3.25;0.60;;;;;;;18.70;56.00;96184.66;10348896;28;20038;-29
2023/10/22 11:42:22;;;;;;;4.32;0.70;;;;;;;18.67;57.93;96187.22;10354742;28;20481;-28
2023/10/22 11:47:24;;;;;;;2.42;0.60;;;;;;;18.69;58.61;96188.91;10340630;28;20037;-27
2023/10/22 11:52:46;;;;;;;2.30;0.60;;;;;;;18.69;58.76;96193.13;10343671;28;20038;-28
2023/10/22 11:57:47;;;;;;;3.35;0.50;;;;;;;18.69;58.69;96188.91;10338713;28;20513;-27
2023/10/22 12:02:47;;;;;;;3.70;0.60;;;;;;;18.69;58.57;96198.19;10347561;28;20074;-28
2023/10/22 12:07:48;;;;;;;2.60;0.50;;;;;;;18.68;58.62;96201.59;10347917;28;20041;-28
2023/10/22 12:12:49;;;;;;;5.33;1.20;;;;;;;18.69;58.68;96193.13;10343557;28;20551;-28
2023/10/22 12:17:49;;;;;;;1.73;0.40;;;;;;;18.70;58.67;96192.25;10343486;28;20493;-27
2023/10/22 12:22:49;;;;;;;7.50;0.80;;;;;;;18.69;58.07;96193.13;10337396;28;20038;-27
2023/10/22 12:27:50;;;;;;;4.97;0.70;;;;;;;18.70;56.91;96197.31;10340965;28;20120;-28
2023/10/22 12:32:50;;;;;;;6.43;0.60;;;;;;;18.71;58.48;96196.47;10338580;28;20664;-27
2023/10/22 12:37:51;;;;;;;6.63;0.93;;;;;;;18.68;56.70;96186.38;10336342;28;20037;-29
2023/10/22 12:42:51;;;;;;;3.42;0.77;;;;;;;18.62;56.00;96191.47;10335731;28;20030;-27
2023/10/22 12:47:52;;;;;;;4.87;1.10;;;;;;;18.66;55.22;96193.16;10336914;28;20601;-27
2023/10/22 12:52:52;;;;;;;6.70;0.83;;;;;;;18.71;55.95;96193.94;10346911;28;20037;-28
2023/10/22 12:57:52;;;;;;;8.97;1.27;;;;;;;18.79;56.32;96185.41;10338802;28;20030;-28
2023/10/22 13:02:53;;;;;;;5.32;0.80;;;;;;;18.83;56.16;96171.00;10343386;28;20124;-28
2023/10/22 13:07:53;;;;;;;4.43;0.83;;;;;;;18.83;56.85;96174.38;10353004;28;20034;-27
2023/10/22 13:12:53;;;;;;;2.73;0.73;;;;;;;18.84;57.06;96178.59;10351132;28;20440;-27
2023/10/22 13:17:54;;;;;;;3.30;0.63;;;;;;;18.87;57.67;96178.56;10355227;28;20049;-28
2023/10/22 13:22:54;;;;;;;4.63;0.83;;;;;;;18.87;57.54;96192.94;10358954;28;20049;-28
2023/10/22 13:27:55;;;;;;;2.47;0.70;;;;;;;18.86;57.60;96196.34;10355866;28;20049;-28
2023/10/22 13:32:57;;;;;;;7.07;1.20;;;;;;;18.86;57.73;96181.97;10359467;28;20027;-27
2023/10/22 13:37:58;;;;;;;8.27;0.98;;;;;;;18.85;57.83;96184.50;10353591;28;20303;-28
2023/10/22 13:42:58;;;;;;;22.50;3.13;;;;;;;18.89;57.42;96181.06;10360941;28;20061;-28
2023/10/22 13:47:59;;;;;;;4.45;0.90;;;;;;;18.82;53.27;96194.69;10356599;28;20075;-29
2023/10/22 13:52:59;;;;;;;7.80;1.08;;;;;;;18.83;52.57;96179.44;10362475;28;20040;-28
2023/10/22 13:58:00;;;;;;;4.57;1.40;;;;;;;18.83;52.15;96186.22;10355297;28;20563;-28
2023/10/22 14:03:00;;;;;;;3.77;1.27;;;;;;;18.83;51.46;96191.31;10359758;28;20026;-30
2023/10/22 14:08:01;;;;;;;9.67;1.40;;;;;;;18.86;51.96;96196.34;10359373;28;20272;-29
2023/10/22 14:13:04;;;;;;;7.35;1.60;;;;;;;18.81;52.00;96205.66;10357446;28;20044;-28
2023/10/22 14:18:04;;;;;;;9.52;1.52;;;;;;;18.83;52.12;96211.59;10351255;28;20467;-28
2023/10/22 14:23:05;;;;;;;2.90;0.83;;;;;;;18.82;51.41;96209.91;10352098;28;20037;-28
2023/10/22 14:28:06;;;;;;;4.07;1.37;;;;;;;18.83;50.64;96211.59;10349579;28;20284;-28
2023/10/22 14:33:07;;;;;;;2.38;0.73;;;;;;;18.82;50.95;96215.00;10352316;28;20328;-28
2023/10/22 14:38:07;;;;;;;2.83;0.95;;;;;;;18.80;50.54;96217.53;10351347;28;20117;-28
2023/10/22 14:43:07;;;;;;;4.18;1.05;;;;;;;18.81;51.57;96213.28;10352162;28;20037;-28
2023/10/22 14:48:08;;;;;;;9.73;1.10;;;;;;;18.81;50.73;96208.19;10349589;28;20547;-28
2023/10/22 14:53:08;;;;;;;6.70;1.40;;;;;;;18.81;51.54;96213.28;10350757;28;20018;-27
2023/10/22 14:58:08;;;;;;;3.77;1.43;;;;;;;18.84;50.94;96214.09;10351203;28;20053;-28
2023/10/22 15:03:09;;;;;;;7.23;1.50;;;;;;;18.88;52.75;96214.91;10346852;28;20049;-28
2023/10/22 15:08:09;;;;;;;4.93;1.20;;;;;;;18.96;53.79;96214.00;10336489;28;20293;-28
2023/10/22 15:13:10;;;;;;;2.63;1.03;;;;;;;18.91;54.14;96209.81;10348916;28;20030;-28
2023/10/22 15:18:13;;;;;;;8.80;1.15;;;;;;;19.08;54.78;96220.63;10346497;28;20112;-27
2023/10/22 15:23:17;;;;;;;9.50;1.65;;;;;;;19.23;54.50;96216.25;10351250;28;20408;-28
2023/10/22 15:28:18;;;;;;;5.38;1.20;;;;;;;19.13;55.04;96217.19;10331546;28;20034;-28
2023/10/22 15:33:19;;;;;;;8.77;1.20;;;;;;;19.16;55.84;96222.22;10345902;28;20045;-27
2023/10/22 15:38:19;;;;;;;4.83;1.03;;;;;;;19.19;55.81;96226.47;10340171;28;20559;-28
2023/10/22 15:43:20;;;;;;;2.37;1.33;;;;;;;19.22;55.83;96237.44;10341220;28;20300;-29
2023/10/22 15:48:23;;;;;;;9.75;1.55;;;;;;;19.16;56.07;96229.00;10339381;28;20037;-27
2023/10/22 15:53:24;;;;;;;3.75;1.10;;;;;;;19.18;56.12;96248.41;10340771;28;20489;-27
2023/10/22 15:58:25;;;;;;;4.70;1.00;;;;;;;19.15;56.19;96245.94;10339956;28;20061;-32
2023/10/22 16:03:26;;;;;;;7.80;1.45;;;;;;;19.16;56.29;96256.94;10332364;28;20050;-27
2023/10/22 16:08:26;;;;;;;3.15;0.98;;;;;;;19.17;56.54;96256.06;10346664;28;20497;-28
2023/10/22 16:13:27;;;;;;;4.18;0.88;;;;;;;19.19;56.29;96262.00;10353098;28;20034;-29
2023/10/22 16:18:27;;;;;;;2.60;0.90;;;;;;;19.18;55.69;96265.34;10339079;28;20030;-28
2023/10/22 16:23:27;;;;;;;3.93;1.13;;;;;;;19.18;55.90;96265.34;10350627;28;20326;-27
2023/10/22 16:28:28;;;;;;;5.07;1.30;;;;;;;19.13;55.98;96273.00;10339341;28;20067;-27
2023/10/22 16:33:28;;;;;;;2.60;1.10;;;;;;;19.18;55.98;96285.66;10341059;28;20488;-28
2023/10/22 16:38:29;;;;;;;4.80;1.60;;;;;;;19.18;55.88;96290.72;10349048;28;20416;-28
2023/10/22 16:43:29;;;;;;;7.60;1.50;;;;;;;19.18;55.90;96286.47;10341890;28;20484;-27
2023/10/22 16:48:30;;;;;;;2.10;1.07;;;;;;;19.20;55.81;96289.06;10352134;28;20034;-28
2023/10/22 16:53:32;;;;;;;3.33;1.10;;;;;;;19.19;55.90;96293.28;10354924;28;20048;-28
2023/10/22 16:58:32;;;;;;;2.72;0.70;;;;;;;19.21;56.01;96290.72;10342897;28;20057;-29
2023/10/22 17:03:34;;;;;;;2.43;0.80;;;;;;;19.17;55.87;96300.03;10335466;28;20037;-28
2023/10/22 17:08:34;;;;;;;4.20;1.10;;;;;;;19.18;56.24;96311.84;10347878;28;20412;-28
2023/10/22 17:13:34;;;;;;;1.50;1.30;;;;;;;19.11;56.68;96301.78;10351180;28;20033;-27
2023/10/22 17:18:35;;;;;;;4.53;1.30;;;;;;;19.14;56.66;96315.28;10340917;28;20045;-27
2023/10/22 17:23:35;;;;;;;8.38;1.30;;;;;;;19.14;56.56;96319.50;10352498;28;20044;-28
2023/10/22 17:28:36;;;;;;;3.17;1.00;;;;;;;19.20;56.70;96327.13;10339168;28;20030;-27
2023/10/22 17:33:36;;;;;;;4.13;1.37;;;;;;;19.15;57.10;96326.28;10339421;28;20042;-27
2023/10/22 17:38:36;;;;;;;2.67;1.20;;;;;;;19.18;56.84;96323.72;10333438;28;20042;-27
2023/10/22 17:43:37;;;;;;;3.60;0.80;;;;;;;19.18;57.30;96334.69;10350956;28;20030;-28
2023/10/22 17:48:39;;;;;;;3.90;0.80;;;;;;;19.19;56.98;96327.97;10345707;28;20122;-28
2023/10/22 17:53:40;;;;;;;1.65;0.73;;;;;;;19.21;56.87;96332.19;10334453;28;20030;-28
2023/10/22 17:58:44;;;;;;;6.45;1.02;;;;;;;19.23;56.67;96337.22;10342520;28;20042;-28
2023/10/22 18:03:48;;;;;;;3.80;0.95;;;;;;;19.25;56.84;96348.22;10346174;28;20033;-28
2023/10/22 18:08:48;;;;;;;3.55;0.90;;;;;;;19.25;57.16;96359.22;10343263;28;20070;-28
2023/10/22 18:13:49;;;;;;;3.07;1.10;;;;;;;19.23;56.75;96349.91;10340542;28;20100;-27
2023/10/22 18:18:49;;;;;;;4.60;1.07;;;;;;;19.20;56.89;96355.03;10347230;28;20297;-28
2023/10/22 18:23:50;;;;;;;8.47;1.17;;;;;;;19.19;57.64;96363.50;10346901;28;20072;-28
2023/10/22 18:28:50;;;;;;;3.63;1.25;;;;;;;19.10;57.87;96350.88;10335931;28;20293;-28
2023/10/22 18:33:51;;;;;;;5.73;1.27;;;;;;;19.16;58.10;96368.59;10332861;28;20515;-28
2023/10/22 18:38:51;;;;;;;5.22;1.40;;;;;;;19.14;58.32;96360.13;10336827;28;20419;-28
2023/10/22 18:43:52;;;;;;;4.55;1.00;;;;;;;19.14;58.72;96367.72;10341630;28;20038;-27
2023/10/22 18:48:53;;;;;;;4.93;1.37;;;;;;;19.12;58.83;96359.28;10342144;28;20582;-27
2023/10/22 18:53:53;;;;;;;5.63;1.10;;;;;;;19.09;58.84;96354.25;10333783;28;20049;-28
2023/10/22 18:58:54;;;;;;;2.50;0.90;;;;;;;19.12;58.29;96357.63;10332412;28;20400;-27
2023/10/22 19:03:58;;;;;;;2.83;1.00;;;;;;;19.15;57.90;96362.66;10335870;28;20811;-28
2023/10/22 19:09:02;;;;;;;4.97;1.17;;;;;;;19.14;57.84;96370.25;10346169;28;20038;-29
2023/10/22 19:14:02;;;;;;;3.20;1.10;;;;;;;19.10;57.88;96373.69;10350644;28;20030;-28
2023/10/22 19:19:03;;;;;;;2.67;1.00;;;;;;;19.05;58.21;96366.13;10343133;28;20034;-28
2023/10/22 19:24:04;;;;;;;5.23;1.67;;;;;;;19.07;58.09;96373.69;10332723;28;20857;-28
2023/10/22 19:29:04;;;;;;;2.78;0.93;;;;;;;19.04;58.05;96369.50;10331886;28;20293;-28
2023/10/22 19:34:05;;;;;;;6.50;1.52;;;;;;;19.03;58.23;96372.06;10329698;28;20045;-28
2023/10/22 19:39:05;;;;;;;3.95;1.10;;;;;;;19.03;58.04;96372.06;10333513;28;20034;-27
2023/10/22 19:44:05;;;;;;;3.33;0.80;;;;;;;19.00;58.17;96378.00;10336109;28;20059;-28
2023/10/22 19:49:06;;;;;;;3.33;1.53;;;;;;;18.99;58.12;96383.91;10339802;28;20026;-28
2023/10/22 19:54:07;;;;;;;3.03;1.00;;;;;;;19.01;57.87;96389.00;10323956;28;20281;-28
2023/10/22 19:59:07;;;;;;;5.27;1.13;;;;;;;18.97;57.82;96383.09;10329116;28;20382;-28
2023/10/22 20:04:08;;;;;;;1.20;0.83;;;;;;;19.00;57.99;96397.47;10326610;28;20309;-28
2023/10/22 20:09:08;;;;;;;2.10;1.13;;;;;;;18.99;57.56;96400.84;10338222;28;20289;-28
2023/10/22 20:14:08;;;;;;;4.07;0.80;;;;;;;19.00;57.60;96412.69;10324143;28;20041;-28
2023/10/22 20:19:10;;;;;;;4.07;1.05;;;;;;;19.00;57.45;96405.06;10327899;28;20125;-29
2023/10/22 20:24:10;;;;;;;2.05;1.10;;;;;;;19.00;57.54;96412.69;10332189;28;20445;-28
2023/10/22 20:29:14;;;;;;;1.87;0.90;;;;;;;19.00;57.34;96407.59;10339952;28;20026;-28
2023/10/22 20:34:16;;;;;;;1.05;0.73;;;;;;;19.02;57.19;96400.81;10338679;28;20323;-28
2023/10/22 20:39:16;;;;;;;3.67;1.42;;;;;;;19.04;56.96;96394.03;10340786;28;20030;-28
2023/10/22 20:44:17;;;;;;;4.13;1.03;;;;;;;19.02;57.93;96400.81;10330872;28;20042;-28
2023/10/22 20:49:17;;;;;;;1.93;1.10;;;;;;;19.10;57.65;96404.16;10334677;28;20026;-28
2023/10/22 20:54:17;;;;;;;4.30;1.47;;;;;;;19.14;57.34;96415.94;10329832;28;20304;-28
2023/10/22 20:59:18;;;;;;;2.20;0.97;;;;;;;19.16;57.42;96409.19;10326935;28;20479;-28
2023/10/22 21:04:19;;;;;;;6.87;1.13;;;;;;;19.13;57.45;96409.19;10326541;28;20385;-29
2023/10/22 21:09:19;;;;;;;5.65;1.20;;;;;;;19.13;57.52;96397.34;10323851;28;20456;-27
2023/10/22 21:14:21;;;;;;;7.40;4.07;;;;;;;19.13;57.90;96394.81;10326305;28;20034;-28
2023/10/22 21:19:22;;;;;;;5.03;1.45;;;;;;;19.10;58.24;96399.06;10331887;28;20030;-29
2023/10/22 21:24:23;;;;;;;4.67;0.87;;;;;;;19.12;58.60;96387.22;10329699;28;20038;-28
2023/10/22 21:29:23;;;;;;;3.65;1.00;;;;;;;19.10;59.09;96389.75;10334105;28;20065;-28
2023/10/22 21:34:23;;;;;;;4.27;1.10;;;;;;;19.10;59.34;96388.91;10338474;28;20034;-29
2023/10/22 21:39:25;;;;;;;3.33;1.20;;;;;;;19.08;59.45;96388.91;10334886;28;20038;-28
2023/10/22 21:44:25;;;;;;;4.55;1.33;;;;;;;19.08;59.63;96375.41;10351454;28;20520;-28
2023/10/22 21:49:25;;;;;;;2.90;1.33;;;;;;;19.08;59.90;96380.50;10334767;28;20080;-28
2023/10/22 21:54:26;;;;;;;2.95;1.27;;;;;;;19.09;60.00;96377.09;10346828;28;20043;-28
2023/10/22 21:59:26;;;;;;;3.67;1.53;;;;;;;19.07;60.20;96379.63;10332782;28;20037;-29
2023/10/22 22:04:27;;;;;;;2.63;1.00;;;;;;;19.09;60.23;96384.69;10345523;28;20034;-28
2023/10/22 22:09:27;;;;;;;4.47;1.15;;;;;;;19.06;60.44;96377.09;10342587;28;20034;-28
2023/10/22 22:14:27;;;;;;;3.70;1.20;;;;;;;19.07;60.53;96373.69;10341269;28;20458;-28
2023/10/22 22:19:28;;;;;;;2.37;1.10;;;;;;;19.05;60.53;96378.81;10347670;28;20054;-28
2023/10/22 22:24:30;;;;;;;3.60;1.38;;;;;;;19.01;61.84;96368.69;10337010;28;20293;-28
2023/10/22 22:29:31;;;;;;;4.50;0.88;;;;;;;18.96;61.33;96357.72;10339359;28;20420;-28
2023/10/22 22:34:31;;;;;;;2.30;0.70;;;;;;;18.98;62.33;96368.69;10332103;28;20038;-28
2023/10/22 22:39:32;;;;;;;2.87;1.10;;;;;;;18.97;62.28;96361.94;10330765;28;20042;-28
2023/10/22 22:44:32;;;;;;;4.93;0.80;;;;;;;18.95;62.29;96353.50;10345081;28;20046;-28
2023/10/22 22:49:32;;;;;;;1.70;0.87;;;;;;;18.95;61.87;96368.72;10333408;28;20409;-28
2023/10/22 22:54:33;;;;;;;2.43;0.90;;;;;;;18.94;62.18;96372.13;10333954;28;20280;-28
2023/10/22 22:59:34;;;;;;;3.25;0.98;;;;;;;18.91;62.29;96367.09;10336749;28;20087;-28
2023/10/22 23:04:34;;;;;;;3.00;0.70;;;;;;;18.94;61.28;96372.13;10336066;28;20041;-28
2023/10/22 23:09:35;;;;;;;2.50;0.90;;;;;;;18.93;61.47;96357.75;10333678;28;20030;-28
2023/10/22 23:14:35;;;;;;;2.33;0.93;;;;;;;18.94;61.45;96361.97;10341108;28;20125;-28
2023/10/22 23:19:36;;;;;;;1.93;0.73;;;;;;;18.94;61.49;96375.53;10333689;28;20057;-28